Neilburg, Canada
Current Conditions -  °F | °C
As of 5:00 AM on Saturday 25 Oct 2014 (Local Time) from CYLL Reporting Station
Clear Clear  
Wind Chill: 20°   Ceiling: Unl
Heat Index: 30°   Visibility: 9mi
Dew Point: 23°   Wind: 13mph
Humidity: 75%   Direction: 260°W
Pressure: 30"   Gusts: NA
Location:  52.83°N, 109.63°W
Report Text: CYLL 251000Z AUTO 26011KT 9SM CLR M01/M05 A3000 RMK SLP185
Loading
Personal Weather Stations






























Interactive Weather Map New forecast layout! Learn more

10-Day Weather Forecast

Advertisements
Track Severe Weather on mobile